Map

Track Data

SID SEASON NUMBER BASIN SUBBASIN NAME ISO_TIME NATURE LAT LON WMO_WIND WMO_PRES WMO_AGENCY TRACK_TYPE DIST2LAND LANDFALL IFLAG USA_AGENCY USA_ATCF_ID USA_LAT USA_LON USA_RECORD USA_STATUS USA_WIND USA_PRES USA_SSHS USA_R34_NE USA_R34_SE USA_R34_SW USA_R34_NW USA_R50_NE USA_R50_SE USA_R50_SW USA_R50_NW USA_R64_NE USA_R64_SE USA_R64_SW USA_R64_NW USA_POCI USA_ROCI USA_RMW USA_EYE TOKYO_LAT TOKYO_LON TOKYO_GRADE TOKYO_WIND TOKYO_PRES TOKYO_R50_DIR TOKYO_R50_LONG TOKYO_R50_SHORT TOKYO_R30_DIR TOKYO_R30_LONG TOKYO_R30_SHORT TOKYO_LAND CMA_LAT CMA_LON CMA_CAT CMA_WIND CMA_PRES HKO_LAT HKO_LON HKO_CAT HKO_WIND HKO_PRES NEWDELHI_LAT NEWDELHI_LON NEWDELHI_GRADE NEWDELHI_WIND NEWDELHI_PRES NEWDELHI_CI NEWDELHI_DP NEWDELHI_POCI REUNION_LAT REUNION_LON REUNION_TYPE REUNION_WIND REUNION_PRES REUNION_TNUM REUNION_CI REUNION_RMW REUNION_R34_NE REUNION_R34_SE REUNION_R34_SW REUNION_R34_NW REUNION_R50_NE REUNION_R50_SE REUNION_R50_SW REUNION_R50_NW REUNION_R64_NE REUNION_R64_SE REUNION_R64_SW REUNION_R64_NW BOM_LAT BOM_LON BOM_TYPE BOM_WIND BOM_PRES BOM_TNUM BOM_CI BOM_RMW BOM_R34_NE BOM_R34_SE BOM_R34_SW BOM_R34_NW BOM_R50_NE BOM_R50_SE BOM_R50_SW BOM_R50_NW BOM_R64_NE BOM_R64_SE BOM_R64_SW BOM_R64_NW BOM_ROCI BOM_POCI BOM_EYE BOM_POS_METHOD BOM_PRES_METHOD NADI_LAT NADI_LON NADI_CAT NADI_WIND NADI_PRES WELLINGTON_LAT WELLINGTON_LON WELLINGTON_WIND WELLINGTON_PRES DS824_LAT DS824_LON DS824_STAGE DS824_WIND DS824_PRES TD9636_LAT TD9636_LON TD9636_STAGE TD9636_WIND TD9636_PRES TD9635_LAT TD9635_LON TD9635_WIND TD9635_PRES TD9635_ROCI NEUMANN_LAT NEUMANN_LON NEUMANN_CLASS NEUMANN_WIND NEUMANN_PRES MLC_LAT MLC_LON MLC_CLASS MLC_WIND MLC_PRES USA_GUST BOM_GUST BOM_GUST_PER REUNION_GUST REUNION_GUST_PER USA_SEAHGT USA_SEARAD_NE USA_SEARAD_SE USA_SEARAD_SW USA_SEARAD_NW STORM_SPEED STORM_DIR
1939185N11139 1939 30 WP MM NOT_NAMED 1939-07-03 21:00:00 NR 11.2000 138.900 main 1382 1382 __________O___ -1 11.2000 138.900 2 5 5
1939185N11139 1939 30 WP MM NOT_NAMED 1939-07-04 00:00:00 NR 11.4525 138.926 main 1412 1412 __________P___ -1 11.4525 138.926 2 5 3
1939185N11139 1939 30 WP MM NOT_NAMED 1939-07-04 03:00:00 NR 11.6840 138.902 main 1417 1408 __________P___ -1 11.6840 138.902 2 4 341
1939185N11139 1939 30 WP MM NOT_NAMED 1939-07-04 06:00:00 NR 11.8736 138.777 main 1410 1381 __________P___ -1 11.8736 138.777 2 5 309
1939185N11139 1939 30 WP MM NOT_NAMED 1939-07-04 09:00:00 NR 12.0000 138.500 main 1381 1338 __________O___ -1 12.0000 138.500 2 7 284
1939185N11139 1939 30 WP MM NOT_NAMED 1939-07-04 12:00:00 NR 12.0489 138.046 main 1328 1274 __________P___ -1 12.0489 138.046 2 10 272
1939185N11139 1939 30 WP MM NOT_NAMED 1939-07-04 15:00:00 NR 12.0341 137.492 main 1274 1222 __________P___ -1 12.0341 137.492 2 11 266
1939185N11139 1939 30 WP MM NOT_NAMED 1939-07-04 18:00:00 NR 11.9770 136.943 main 1211 1166 __________P___ -1 11.9770 136.943 2 10 262
1939185N11139 1939 30 WP MM NOT_NAMED 1939-07-04 21:00:00 NR 11.9000 136.500 main 1166 1145 __________O___ -1 11.9000 136.500 2 6 258
1939185N11139 1939 30 WP MM NOT_NAMED 1939-07-05 00:00:00 NR 11.8509 136.327 main 1145 1142 __________P___ -1 11.8509 136.327 2 3 243
1939185N11139 1939 30 WP MM NOT_NAMED 1939-07-05 03:00:00 NR 11.7868 136.268 main 1142 1140 __________P___ -1 11.7868 136.268 2 2 209
1939185N11139 1939 30 WP MM NOT_NAMED 1939-07-05 06:00:00 NR 11.7042 136.249 main 1129 1126 __________P___ -1 11.7042 136.249 2 2 199
1939185N11139 1939 30 WP MM NOT_NAMED 1939-07-05 09:00:00 NR 11.6000 136.200 main 1126 1100 __________O___ -1 11.6000 136.200 2 4 219
1939185N11139 1939 30 WP MM NOT_NAMED 1939-07-05 12:00:00 NR 11.4269 136.022 main 1100 1074 __________P___ -1 11.4269 136.022 2 5 227
1939185N11139 1939 30 WP MM NOT_NAMED 1939-07-05 15:00:00 NR 11.2401 135.802 main 1074 1051 __________P___ -1 11.2401 135.802 2 6 233
1939185N11139 1939 30 WP MM NOT_NAMED 1939-07-05 18:00:00 NR 11.0831 135.556 main 1051 1016 __________P___ -1 11.0831 135.556 2 5 244
1939185N11139 1939 30 WP MM NOT_NAMED 1939-07-05 21:00:00 NR 11.0000 135.300 main 1016 995 __________O___ -1 11.0000 135.300 2 5 263
1939185N11139 1939 30 WP MM NOT_NAMED 1939-07-06 00:00:00 NR 11.0294 135.090 main 995 976 __________P___ -1 11.0294 135.090 2 4 288
1939185N11139 1939 30 WP MM NOT_NAMED 1939-07-06 03:00:00 NR 11.1371 134.867 main 976 949 __________P___ -1 11.1371 134.867 2 5 300
1939185N11139 1939 30 WP MM NOT_NAMED 1939-07-06 06:00:00 NR 11.3012 134.611 main 949 923 __________P___ -1 11.3012 134.611 2 7 303
1939185N11139 1939 30 WP MM NOT_NAMED 1939-07-06 09:00:00 NR 11.5000 134.300 main 923 876 __________O___ -1 11.5000 134.300 2 9 296
1939185N11139 1939 30 WP MM NOT_NAMED 1939-07-06 12:00:00 NR 11.6849 133.791 main 876 824 __________P___ -1 11.6849 133.791 2 11 291
1939185N11139 1939 30 WP MM NOT_NAMED 1939-07-06 15:00:00 NR 11.8986 133.244 main 813 772 __________P___ -1 11.8986 133.244 2 11 295
1939185N11139 1939 30 WP MM NOT_NAMED 1939-07-06 18:00:00 NR 12.1378 132.775 main 772 744 __________P___ -1 12.1378 132.775 2 9 305
1939185N11139 1939 30 WP MM NOT_NAMED 1939-07-06 21:00:00 NR 12.4000 132.500 main 746 746 __________O___ -1 12.4000 132.500 2 5 342
1939185N11139 1939 30 WP MM NOT_NAMED 1939-07-07 00:00:00 NR 12.6338 132.606 main 761 761 __________P___ -1 12.6338 132.606 2 6 39
1939185N11139 1939 30 WP MM NOT_NAMED 1939-07-07 03:00:00 NR 12.8954 132.906 main 801 801 __________P___ -1 12.8954 132.906 2 9 49
1939185N11139 1939 30 WP MM NOT_NAMED 1939-07-07 06:00:00 NR 13.2092 133.278 main 852 852 __________P___ -1 13.2092 133.278 2 10 44
1939185N11139 1939 30 WP MM NOT_NAMED 1939-07-07 09:00:00 NR 13.6000 133.600 main 892 892 __________O___ -1 13.6000 133.600 2 10 29
1939185N11139 1939 30 WP MM NOT_NAMED 1939-07-07 12:00:00 NR 14.0914 133.781 main 923 923 __________P___ -1 14.0914 133.781 2 11 14
1939185N11139 1939 30 WP MM NOT_NAMED 1939-07-07 15:00:00 NR 14.6592 133.880 main 950 950 __________P___ -1 14.6592 133.880 2 12 4
1939185N11139 1939 30 WP MM NOT_NAMED 1939-07-07 18:00:00 NR 15.2724 133.865 main 971 965 __________P___ -1 15.2724 133.865 2 13 352
1939185N11139 1939 30 WP MM NOT_NAMED 1939-07-07 21:00:00 NR 15.9000 133.700 main 976 971 __________O___ -1 15.9000 133.700 2 14 337
1939185N11139 1939 30 WP MM NOT_NAMED 1939-07-08 00:00:00 NR 16.5141 133.329 main 968 957 __________P___ -1 16.5141 133.329 2 15 325
1939185N11139 1939 30 WP MM NOT_NAMED 1939-07-08 03:00:00 NR 17.1315 132.815 main 957 941 __________P___ -1 17.1315 132.815 2 16 320
1939185N11139 1939 30 WP MM NOT_NAMED 1939-07-08 06:00:00 NR 17.7330 132.244 main 936 920 __________P___ -1 17.7330 132.244 2 16 318
1939185N11139 1939 30 WP MM NOT_NAMED 1939-07-08 09:00:00 NR 18.3000 131.700 main 922 913 __________O___ -1 18.3000 131.700 2 14 321
1939185N11139 1939 30 WP MM NOT_NAMED 1939-07-08 12:00:00 NR 18.8386 131.306 main 917 916 __________P___ -1 18.8386 131.306 2 13 326
1939185N11139 1939 30 WP MM NOT_NAMED 1939-07-08 15:00:00 NR 19.3390 130.954 main 920 885 __________P___ -1 19.3390 130.954 2 12 326
1939185N11139 1939 30 WP MM NOT_NAMED 1939-07-08 18:00:00 NR 19.7950 130.625 main 885 863 __________P___ -1 19.7950 130.625 2 11 324
1939185N11139 1939 30 WP MM NOT_NAMED 1939-07-08 21:00:00 NR 20.2000 130.300 main 863 837 __________O___ -1 20.2000 130.300 2 10 319
1939185N11139 1939 30 WP MM NOT_NAMED 1939-07-09 00:00:00 NR 20.5300 129.933 main 830 810 __________P___ -1 20.5300 129.933 2 9 312
1939185N11139 1939 30 WP MM NOT_NAMED 1939-07-09 03:00:00 NR 20.8150 129.569 main 810 782 __________P___ -1 20.8150 129.569 2 9 310
1939185N11139 1939 30 WP MM NOT_NAMED 1939-07-09 06:00:00 NR 21.0925 129.220 main 782 767 __________P___ -1 21.0925 129.220 2 9 313
1939185N11139 1939 30 WP MM NOT_NAMED 1939-07-09 09:00:00 NR 21.4000 128.900 main 767 748 __________O___ -1 21.4000 128.900 2 9 321
1939185N11139 1939 30 WP MM NOT_NAMED 1939-07-09 12:00:00 NR 21.7848 128.609 main 748 711 __________P___ -1 21.7848 128.609 2 10 327
1939185N11139 1939 30 WP MM NOT_NAMED 1939-07-09 15:00:00 NR 22.2047 128.347 main 701 666 __________P___ -1 22.2047 128.347 2 10 332
1939185N11139 1939 30 WP MM NOT_NAMED 1939-07-09 18:00:00 NR 22.6474 128.112 main 666 629 __________P___ -1 22.6474 128.112 2 10 335
1939185N11139 1939 30 WP MM NOT_NAMED 1939-07-09 21:00:00 NR 23.1000 127.900 main 629 599 __________O___ -1 23.1000 127.900 2 10 339
1939185N11139 1939 30 WP MM NOT_NAMED 1939-07-10 00:00:00 NR 23.5423 127.731 main 599 577 __________P___ -1 23.5423 127.731 2 9 342
1939185N11139 1939 30 WP MM NOT_NAMED 1939-07-10 03:00:00 NR 23.9918 127.578 main 577 549 __________P___ -1 23.9918 127.578 2 10 342
1939185N11139 1939 30 WP MM NOT_NAMED 1939-07-10 06:00:00 NR 24.4454 127.412 main 549 523 __________P___ -1 24.4454 127.412 2 10 339
1939185N11139 1939 30 WP MM NOT_NAMED 1939-07-10 09:00:00 NR 24.9000 127.200 main 523 493 __________O___ -1 24.9000 127.200 2 10 334
1939185N11139 1939 30 WP MM NOT_NAMED 1939-07-10 12:00:00 NR 25.3663 126.909 main 494 468 __________P___ -1 25.3663 126.909 2 11 328
1939185N11139 1939 30 WP MM NOT_NAMED 1939-07-10 15:00:00 NR 25.8300 126.568 main 470 441 __________P___ -1 25.8300 126.568 2 11 325
1939185N11139 1939 30 WP MM NOT_NAMED 1939-07-10 18:00:00 NR 26.2787 126.193 main 445 424 __________P___ -1 26.2787 126.193 2 11 322
1939185N11139 1939 30 WP MM NOT_NAMED 1939-07-10 21:00:00 NR 26.7000 125.800 main 424 406 __________O___ -1 26.7000 125.800 2 11 320
1939185N11139 1939 30 WP MM NOT_NAMED 1939-07-11 00:00:00 NR 27.0781 125.433 main 396 358 __________P___ -1 27.0781 125.433 2 10 317
1939185N11139 1939 30 WP MM NOT_NAMED 1939-07-11 03:00:00 NR 27.4291 125.050 main 358 311 __________P___ -1 27.4291 125.050 2 10 314
1939185N11139 1939 30 WP MM NOT_NAMED 1939-07-11 06:00:00 NR 27.7655 124.642 main 298 247 __________P___ -1 27.7655 124.642 2 10 312
1939185N11139 1939 30 WP MM NOT_NAMED 1939-07-11 09:00:00 NR 28.1000 124.200 main 247 182 __________O___ -1 28.1000 124.200 2 11 310
1939185N11139 1939 30 WP MM NOT_NAMED 1939-07-11 12:00:00 NR 28.4749 123.691 main 182 124 __________P___ -1 28.4749 123.691 2 12 309
1939185N11139 1939 30 WP MM NOT_NAMED 1939-07-11 15:00:00 NR 28.8458 123.151 main 124 58 __________P___ -1 28.8458 123.151 2 12 307
1939185N11139 1939 30 WP MM NOT_NAMED 1939-07-11 18:00:00 NR 29.1937 122.610 main 58 19 __________P___ -1 29.1937 122.610 2 11 305
1939185N11139 1939 30 WP MM NOT_NAMED 1939-07-11 21:00:00 NR 29.5000 122.100 main 19 0 __________O___ -1 29.5000 122.100 2 10 304
1939185N11139 1939 30 WP MM NOT_NAMED 1939-07-12 00:00:00 NR 29.7287 121.710 main 0 0 __________P___ -1 29.7287 121.710 2 8 303
1939185N11139 1939 30 WP MM NOT_NAMED 1939-07-12 03:00:00 NR 29.9192 121.348 main 0 0 __________P___ -1 29.9192 121.348 2 7 300
1939185N11139 1939 30 WP MM NOT_NAMED 1939-07-12 06:00:00 NR 30.1003 120.963 main 0 0 __________P___ -1 30.1003 120.963 2 8 297
1939185N11139 1939 30 WP MM NOT_NAMED 1939-07-12 09:00:00 NR 30.3000 120.500 main 0 0 __________O___ -1 30.3000 120.500 2 11 296
1939185N11139 1939 30 WP MM NOT_NAMED 1939-07-12 12:00:00 NR 30.5845 119.832 main 0 0 __________P___ -1 30.5845 119.832 2 13 296
1939185N11139 1939 30 WP MM NOT_NAMED 1939-07-12 15:00:00 NR 30.8838 119.089 main 0 0 __________P___ -1 30.8838 119.089 2 14 295
1939185N11139 1939 30 WP MM NOT_NAMED 1939-07-12 18:00:00 NR 31.1658 118.351 main 0 0 __________P___ -1 31.1658 118.351 2 13 293
1939185N11139 1939 30 WP MM NOT_NAMED 1939-07-12 21:00:00 NR 31.4000 117.700 main 0 0 __________O___ -1 31.4000 117.700 2 11 292
1939185N11139 1939 30 WP MM NOT_NAMED 1939-07-13 00:00:00 NR 31.5657 117.199 main 0 0 __________P___ -1 31.5657 117.199 2 8 290
1939185N11139 1939 30 WP MM NOT_NAMED 1939-07-13 03:00:00 NR 31.6748 116.827 main 0 0 __________P___ -1 31.6748 116.827 2 6 288
1939185N11139 1939 30 WP MM NOT_NAMED 1939-07-13 06:00:00 NR 31.7467 116.542 main 0 0 __________P___ -1 31.7467 116.542 2 5 286
1939185N11139 1939 30 WP MM NOT_NAMED 1939-07-13 09:00:00 NR 31.8000 116.300 main 0 __________O___ -1 31.8000 116.300 2 4 284

Digital Typhoon Data and Search

About IBTrACS Database

This database is a web-friendly format of International Best Track Archive for Climate Stewardship (IBTrACS), a global best track data archive curated by NOAA dating back to 1842.

Updated: 2021-11-26